Flight Track Log - Related Links

Times and Time Zones

All times are in EDT time to prevent confusion due to time zone crossing. See the CDG4970 flight status page for this flight to view local times or setup timezone preferences in your user account.

Time Position Orientation Groundspeed Altitude Reporting Facility
EDT Latitude Longitude Course Direction KTS MPH feet Rate Location/Type
Fri 08:44:00 PM 26.6812 118.0430 178° South  Level Estimated
Fri 08:45:00 PM 26.5792 118.0471 178° South  Level Estimated
Fri 08:46:00 PM 26.5073 118.0500 178° South  Level Estimated
Fri 08:47:00 PM 26.4354 118.0529 178° South  Level Estimated
Fri 08:48:00 PM 26.3634 118.0558 178° South  Level Estimated
Fri 08:49:00 PM 26.2915 118.0587 178° South  Level Estimated
Fri 08:50:00 PM 26.2196 118.0615 178° South  Level Estimated
Fri 08:51:00 PM 26.1477 118.0644 178° South  Level Estimated
Fri 08:52:00 PM 26.0758 118.0673 178° South  Level Estimated
Fri 08:52:39 PM 26.0170 117.9940 178° South 397 457 22,600  Level FlightAware ADS-B
Fri 08:53:00 PM 26.0039 118.0702 178° South  Level Estimated
Fri 08:53:28 PM 25.9370 117.9960 179° South 397 457 22,600  Level FlightAware ADS-B
Fri 08:55:35 PM 25.6930 118.0000 179° South 397 457 22,600  Level FlightAware ADS-B
Fri 08:56:14 PM 25.6210 118.0010 179° South 397 457 22,600 -333 Level FlightAware ADS-B
Fri 08:57:05 PM 25.5370 118.0040 178° South 392 451 22,100 -341 Descending FlightAware ADS-B
Fri 08:57:42 PM 25.4800 118.0060 178° South 392 451 22,100  Level FlightAware ADS-B
Fri 08:58:18 PM 25.4240 118.0080 178° South 392 451 22,100 -3,280 Level FlightAware ADS-B
Fri 08:58:57 PM 25.3380 118.0070 181° South 339 390 18,000 -3,143 Descending FlightAware ADS-B
Fri 08:59:42 PM 25.2750 118.0090 178° South 337 388 17,700 -222 Descending FlightAware ADS-B
Fri 09:00:18 PM 25.2280 118.0100 179° South 337 388 17,700  Level FlightAware ADS-B
Fri 09:00:55 PM 25.1790 118.0120 178° South 337 388 17,700  Level FlightAware ADS-B
Fri 09:01:32 PM 25.1300 118.0140 178° South 337 388 17,700  Level FlightAware ADS-B
Fri 09:02:10 PM 25.0790 118.0160 178° South 337 388 17,700  Level FlightAware ADS-B
Fri 09:02:46 PM 25.0320 118.0180 178° South 337 388 17,700  Level FlightAware ADS-B
Fri 09:05:00 PM 24.8745 118.0535 168° South  Level Estimated
Fri 09:06:00 PM 24.8041 118.0694 168° South  Level Estimated
Fri 09:07:00 PM 24.7335 118.0852 168° South  Level Estimated
Fri 09:08:00 PM 24.6630 118.1011 168° South  Level Estimated
Fri 09:09:00 PM 24.5925 118.1169 168° South  Level Estimated
Fri 09:10:00 PM 24.5440 118.1277 168° South  Level Estimated
Fri 09:11:00 PM 24.5440 118.1277 193° South  Level Estimated
Fri 09:12:00 PM 24.5440 118.1277 193° South  Level Estimated
Fri 09:13:00 PM 24.5440 118.1277 193° South  Level Estimated
Fri 09:14:00 PM 24.5440 118.1277 193° South  Level Estimated
Fri 09:15:00 PM 24.5440 118.1277 193° South  Level Estimated
Fri 09:16:00 PM 24.5440 118.1277 193° South  Level Estimated
Fri 09:17:00 PM 24.5440 118.1277 193° South  Level Estimated
Fri 09:18:00 PM 24.5440 118.1277 193° South  Level Estimated
Fri 09:19:00 PM 24.5440 118.1277 193° South  Level Estimated
Fri 09:20:00 PM 24.5440 118.1277 193° South  Level Estimated
Fri 09:21:00 PM 24.5440 118.1277 193° South  Level Estimated
Fri 09:22:00 PM 24.5440 118.1277 193° South  Level Estimated
Fri 09:23:00 PM 24.5440 118.1277 193° South  Level Estimated

Login

Don't have an account? Register now (free) for customized features, flight alerts, and more!